Time;durP1;ratioP1;P1;durP2;ratioP2;P2;SDS_P1;SDS_P2;PMS_P1;PMS_P2;Temp;Humidity;BMP_temperature;BMP_pressure;BME280_temperature;BME280_humidity;BME280_pressure;Samples;Min_cycle;Max_cycle;Signal;HPM_P1;HPM_P2
2022/07/12 00:02:12;;;;;;;4.97;1.93;;;;;;;;;;5004601;28;20258;-42
2022/07/12 00:04:38;;;;;;;5.10;1.80;;;;;;;;;;5009554;28;20227;-42
2022/07/12 00:07:04;;;;;;;8.90;2.10;;;;;;;;;;5008637;28;20249;-42
2022/07/12 00:09:31;;;;;;;6.03;1.60;;;;;;;;;;5005610;28;20215;-43
2022/07/12 00:11:57;;;;;;;5.87;2.00;;;;;;;;;;5005290;28;20234;-42
2022/07/12 00:14:24;;;;;;;6.13;1.97;;;;;;;;;;5003029;28;20176;-42
2022/07/12 00:16:51;;;;;;;10.17;2.20;;;;;;;;;;5005007;28;20326;-42
2022/07/12 00:19:17;;;;;;;7.23;2.30;;;;;;;;;;5000336;28;21550;-42
2022/07/12 00:21:43;;;;;;;4.20;1.70;;;;;;;;;;5006944;28;20188;-42
2022/07/12 00:24:09;;;;;;;5.60;2.00;;;;;;;;;;5003537;28;20451;-42
2022/07/12 00:26:35;;;;;;;5.93;2.03;;;;;;;;;;5005725;28;20200;-42
2022/07/12 00:29:02;;;;;;;6.60;1.90;;;;;;;;;;4982021;28;21037;-42
2022/07/12 00:31:28;;;;;;;3.93;2.13;;;;;;;;;;4999461;28;20689;-42
2022/07/12 00:33:54;;;;;;;5.97;1.97;;;;;;;;;;5003780;28;20977;-42
2022/07/12 00:36:20;;;;;;;7.37;2.37;;;;;;;;;;5004590;28;20215;-43
2022/07/12 00:38:47;;;;;;;6.73;2.07;;;;;;;;;;5002996;28;20200;-42
2022/07/12 00:41:13;;;;;;;10.37;2.17;;;;;;;;;;5004126;28;20179;-42
2022/07/12 00:43:39;;;;;;;6.47;1.80;;;;;;;;;;5002912;28;20187;-42
2022/07/12 00:46:05;;;;;;;5.83;2.00;;;;;;;;;;5003595;28;20194;-42
2022/07/12 00:48:32;;;;;;;7.63;2.10;;;;;;;;;;5001292;28;20485;-42
2022/07/12 00:50:58;;;;;;;9.07;2.23;;;;;;;;;;5006726;28;20199;-42
2022/07/12 00:53:25;;;;;;;6.87;2.40;;;;;;;;;;5003214;28;20184;-43
2022/07/12 00:55:58;;;;;;;6.90;2.30;;;;;;;;;;5004629;28;20180;-42
2022/07/12 00:58:24;;;;;;;5.57;2.20;;;;;;;;;;5002773;28;20872;-41
2022/07/12 01:00:51;;;;;;;8.07;2.40;;;;;;;;;;4999002;28;20176;-41
2022/07/12 01:03:17;;;;;;;7.23;2.20;;;;;;;;;;5003306;28;20505;-42
2022/07/12 01:05:44;;;;;;;4.63;2.40;;;;;;;;;;5005604;28;21774;-42
2022/07/12 01:08:11;;;;;;;7.83;2.80;;;;;;;;;;5001412;28;20584;-42
2022/07/12 01:10:38;;;;;;;9.03;2.53;;;;;;;;;;5004096;28;20194;-41
2022/07/12 01:13:04;;;;;;;7.97;2.40;;;;;;;;;;5002053;28;20394;-42
2022/07/12 01:15:31;;;;;;;4.43;2.27;;;;;;;;;;5000747;28;21090;-44
2022/07/12 01:17:58;;;;;;;4.67;2.00;;;;;;;;;;4998029;28;20588;-44
2022/07/12 01:20:24;;;;;;;4.23;2.00;;;;;;;;;;5002186;28;20523;-44
2022/07/12 01:22:54;;;;;;;5.27;1.77;;;;;;;;;;5002474;28;20799;-44
2022/07/12 01:25:20;;;;;;;3.70;1.93;;;;;;;;;;5002872;28;20190;-44
2022/07/12 01:27:46;;;;;;;5.50;2.00;;;;;;;;;;5003535;28;20181;-42
2022/07/12 01:30:12;;;;;;;7.40;2.30;;;;;;;;;;5000806;28;20677;-41
2022/07/12 01:32:39;;;;;;;7.33;2.10;;;;;;;;;;5005752;28;20176;-43
2022/07/12 01:35:06;;;;;;;8.90;1.80;;;;;;;;;;5007588;28;20764;-41
2022/07/12 01:37:39;;;;;;;6.00;2.13;;;;;;;;;;5000217;28;20552;-42
2022/07/12 01:40:06;;;;;;;6.73;2.17;;;;;;;;;;5000645;28;20470;-42
2022/07/12 01:42:33;;;;;;;4.57;2.40;;;;;;;;;;5003124;28;20231;-42
2022/07/12 01:44:59;;;;;;;5.83;2.30;;;;;;;;;;4998162;28;20613;-41
2022/07/12 01:47:26;;;;;;;4.97;2.63;;;;;;;;;;4998567;28;20181;-41
2022/07/12 01:49:52;;;;;;;4.70;2.10;;;;;;;;;;5003240;28;22083;-42
2022/07/12 01:52:19;;;;;;;4.10;2.00;;;;;;;;;;5001762;28;20176;-41
2022/07/12 01:54:46;;;;;;;5.03;2.00;;;;;;;;;;5001941;28;20442;-43
2022/07/12 01:57:12;;;;;;;2.97;1.90;;;;;;;;;;5000746;28;20207;-42
2022/07/12 01:59:39;;;;;;;5.93;2.47;;;;;;;;;;4999672;28;20211;-42
2022/07/12 02:02:05;;;;;;;3.90;1.90;;;;;;;;;;5000651;28;20180;-42
2022/07/12 02:04:31;;;;;;;4.87;2.10;;;;;;;;;;4999626;28;20688;-42
2022/07/12 02:06:57;;;;;;;4.10;2.10;;;;;;;;;;5002030;28;20657;-42
2022/07/12 02:09:24;;;;;;;5.03;2.30;;;;;;;;;;5005701;28;20478;-42
2022/07/12 02:11:50;;;;;;;4.23;1.80;;;;;;;;;;5008002;28;20646;-42
2022/07/12 02:14:17;;;;;;;4.00;2.00;;;;;;;;;;5004989;28;20187;-42
2022/07/12 02:16:43;;;;;;;4.80;2.07;;;;;;;;;;4998577;28;20650;-42
2022/07/12 02:19:10;;;;;;;6.53;2.00;;;;;;;;;;5003457;28;20211;-42
2022/07/12 02:21:36;;;;;;;3.43;1.90;;;;;;;;;;5006300;28;20607;-42
2022/07/12 02:24:03;;;;;;;4.10;2.10;;;;;;;;;;4999893;28;20184;-42
2022/07/12 02:26:29;;;;;;;6.00;2.20;;;;;;;;;;5001405;28;20176;-42
2022/07/12 02:28:56;;;;;;;6.13;2.13;;;;;;;;;;5005924;28;20735;-42
2022/07/12 02:31:22;;;;;;;7.37;2.37;;;;;;;;;;5001930;28;20822;-42
2022/07/12 02:33:48;;;;;;;4.07;2.03;;;;;;;;;;5004291;28;20589;-44
2022/07/12 02:36:14;;;;;;;6.93;2.03;;;;;;;;;;5003337;28;20181;-44
2022/07/12 02:38:40;;;;;;;5.03;1.93;;;;;;;;;;5001281;28;20177;-41
2022/07/12 02:41:06;;;;;;;4.00;1.70;;;;;;;;;;4999871;28;20520;-44
2022/07/12 02:43:32;;;;;;;5.67;2.10;;;;;;;;;;5002987;28;20529;-42
2022/07/12 02:46:06;;;;;;;5.40;2.27;;;;;;;;;;5007961;28;20716;-41
2022/07/12 02:48:33;;;;;;;3.47;1.80;;;;;;;;;;5004257;28;20202;-42
2022/07/12 02:51:02;;;;;;;5.03;2.17;;;;;;;;;;5004596;28;20477;-42
2022/07/12 02:53:28;;;;;;;4.10;2.27;;;;;;;;;;5003653;28;20218;-42
2022/07/12 02:55:54;;;;;;;4.20;2.17;;;;;;;;;;5005449;28;20441;-41
2022/07/12 02:58:20;;;;;;;5.47;2.20;;;;;;;;;;5000366;28;20204;-40
2022/07/12 03:00:47;;;;;;;3.63;2.30;;;;;;;;;;5004151;28;20204;-41
2022/07/12 03:03:13;;;;;;;3.90;2.13;;;;;;;;;;5004640;28;21002;-42
2022/07/12 03:05:40;;;;;;;3.60;2.13;;;;;;;;;;5004914;28;20192;-42
2022/07/12 03:08:06;;;;;;;3.00;2.13;;;;;;;;;;5001572;28;20802;-41
2022/07/12 03:10:32;;;;;;;4.00;2.20;;;;;;;;;;5009776;28;20602;-41
2022/07/12 03:12:59;;;;;;;2.57;1.90;;;;;;;;;;5003638;28;20291;-42
2022/07/12 03:15:25;;;;;;;5.10;2.10;;;;;;;;;;5004548;28;20271;-42
2022/07/12 03:17:51;;;;;;;4.37;1.93;;;;;;;;;;5003334;28;20188;-42
2022/07/12 03:20:17;;;;;;;4.77;2.10;;;;;;;;;;5003170;28;20211;-42
2022/07/12 03:22:48;;;;;;;5.80;2.10;;;;;;;;;;4999509;28;20219;-42
2022/07/12 03:25:14;;;;;;;5.83;2.20;;;;;;;;;;5004491;28;20188;-42
2022/07/12 03:27:41;;;;;;;3.50;2.33;;;;;;;;;;5004338;28;20719;-42
2022/07/12 03:30:08;;;;;;;3.97;1.80;;;;;;;;;;5001002;28;20192;-42
2022/07/12 03:32:34;;;;;;;4.83;1.80;;;;;;;;;;5004245;28;20898;-42
2022/07/12 03:35:00;;;;;;;5.13;2.10;;;;;;;;;;5006562;28;20180;-42
2022/07/12 03:37:27;;;;;;;3.47;1.80;;;;;;;;;;5001811;28;20942;-43
2022/07/12 03:39:56;;;;;;;3.03;2.00;;;;;;;;;;5003765;28;21085;-44
2022/07/12 03:42:22;;;;;;;7.03;2.27;;;;;;;;;;5002829;28;20384;-42
2022/07/12 03:44:48;;;;;;;3.27;1.70;;;;;;;;;;5003582;28;20188;-42
2022/07/12 03:47:15;;;;;;;6.00;2.10;;;;;;;;;;4999057;28;20172;-42
2022/07/12 03:49:41;;;;;;;5.83;2.10;;;;;;;;;;4999755;28;20619;-42
2022/07/12 03:52:07;;;;;;;6.53;2.00;;;;;;;;;;5002325;28;20215;-42
2022/07/12 03:54:33;;;;;;;5.30;2.10;;;;;;;;;;5004996;28;20191;-42
2022/07/12 03:57:14;;;;;;;5.93;2.20;;;;;;;;;;5003599;28;20184;-42
2022/07/12 03:59:41;;;;;;;7.17;2.33;;;;;;;;;;5001911;28;20204;-42
2022/07/12 04:02:07;;;;;;;6.60;1.90;;;;;;;;;;4996810;28;20223;-42
2022/07/12 04:04:33;;;;;;;5.70;2.40;;;;;;;;;;5005643;28;20204;-42
2022/07/12 04:06:59;;;;;;;7.10;2.30;;;;;;;;;;5001644;28;20188;-42
2022/07/12 04:09:25;;;;;;;4.30;2.30;;;;;;;;;;4998574;28;20187;-42
2022/07/12 04:11:52;;;;;;;4.70;2.20;;;;;;;;;;5006342;28;20184;-42
2022/07/12 04:14:18;;;;;;;4.17;2.13;;;;;;;;;;4996804;28;20807;-42
2022/07/12 04:16:44;;;;;;;5.50;2.27;;;;;;;;;;4995700;28;20854;-42
2022/07/12 04:19:10;;;;;;;4.93;2.23;;;;;;;;;;5001660;28;20208;-42
2022/07/12 04:21:37;;;;;;;5.60;2.10;;;;;;;;;;5000327;28;20475;-42
2022/07/12 04:24:03;;;;;;;4.80;2.10;;;;;;;;;;5000591;28;20728;-42
2022/07/12 04:26:29;;;;;;;5.77;2.27;;;;;;;;;;5002758;28;20187;-42
2022/07/12 04:28:55;;;;;;;5.67;2.40;;;;;;;;;;5002779;28;20191;-42
2022/07/12 04:31:21;;;;;;;3.63;2.13;;;;;;;;;;4998540;28;20295;-42
2022/07/12 04:33:47;;;;;;;4.40;2.00;;;;;;;;;;5003274;28;20809;-42
2022/07/12 04:36:13;;;;;;;4.60;2.17;;;;;;;;;;5001631;28;20171;-41
2022/07/12 04:38:39;;;;;;;4.77;2.07;;;;;;;;;;4995255;28;20979;-42
2022/07/12 04:41:06;;;;;;;4.50;2.43;;;;;;;;;;5001359;28;20187;-42
2022/07/12 04:43:32;;;;;;;3.93;2.33;;;;;;;;;;5005687;28;20804;-42
2022/07/12 04:46:06;;;;;;;6.53;2.83;;;;;;;;;;5001991;28;20180;-41
2022/07/12 04:48:32;;;;;;;4.30;2.50;;;;;;;;;;5002886;28;20654;-42
2022/07/12 04:50:58;;;;;;;4.03;2.70;;;;;;;;;;5006909;28;20187;-42
2022/07/12 04:53:24;;;;;;;5.73;2.63;;;;;;;;;;5003699;28;21893;-43
2022/07/12 04:55:50;;;;;;;4.97;2.40;;;;;;;;;;5001275;28;20188;-42
2022/07/12 04:58:16;;;;;;;5.13;2.43;;;;;;;;;;5005605;28;20242;-42
2022/07/12 05:00:44;;;;;;;7.40;2.67;;;;;;;;;;5003012;28;20334;-42
2022/07/12 05:03:10;;;;;;;8.10;2.60;;;;;;;;;;5001706;28;20172;-42
2022/07/12 05:05:37;;;;;;;4.27;2.23;;;;;;;;;;5001383;28;20180;-42
2022/07/12 05:08:04;;;;;;;5.90;2.43;;;;;;;;;;5004945;28;20191;-42
2022/07/12 05:10:30;;;;;;;5.77;2.10;;;;;;;;;;5002151;28;20247;-42
2022/07/12 05:12:56;;;;;;;6.00;2.33;;;;;;;;;;5004270;28;20219;-42
2022/07/12 05:15:23;;;;;;;5.40;2.33;;;;;;;;;;5002915;28;20302;-43
2022/07/12 05:17:49;;;;;;;7.03;2.07;;;;;;;;;;5002828;28;22323;-42
2022/07/12 05:20:15;;;;;;;5.80;2.27;;;;;;;;;;5007777;28;21133;-42
2022/07/12 05:22:41;;;;;;;5.67;2.10;;;;;;;;;;5010514;28;20188;-43
2022/07/12 05:25:08;;;;;;;7.17;2.03;;;;;;;;;;5010454;28;21136;-42
2022/07/12 05:27:34;;;;;;;4.97;2.10;;;;;;;;;;5007274;28;20330;-42
2022/07/12 05:30:00;;;;;;;3.93;1.90;;;;;;;;;;5004954;28;20376;-42
2022/07/12 05:32:27;;;;;;;4.53;2.00;;;;;;;;;;4999007;28;20998;-42
2022/07/12 05:34:53;;;;;;;4.90;2.20;;;;;;;;;;5006534;28;21039;-42
2022/07/12 05:37:19;;;;;;;8.50;2.13;;;;;;;;;;5008411;28;20692;-42
2022/07/12 05:39:45;;;;;;;6.67;2.17;;;;;;;;;;4999564;28;20512;-42
2022/07/12 05:42:11;;;;;;;4.80;1.90;;;;;;;;;;5005405;28;20636;-42
2022/07/12 05:44:38;;;;;;;3.40;1.93;;;;;;;;;;5002644;28;20192;-42
2022/07/12 05:47:04;;;;;;;6.13;2.30;;;;;;;;;;5002633;28;21062;-43
2022/07/12 05:49:30;;;;;;;9.77;2.33;;;;;;;;;;5003758;28;20278;-42
2022/07/12 05:54:41;;;;;;;2.57;1.80;;;;;;;;;;5006355;28;20647;-42
2022/07/12 05:57:07;;;;;;;3.63;1.80;;;;;;;;;;5007508;28;20181;-42
2022/07/12 05:59:35;;;;;;;4.63;2.07;;;;;;;;;;5010577;28;20701;-42
2022/07/12 06:02:01;;;;;;;6.13;2.10;;;;;;;;;;5007603;28;20575;-42
2022/07/12 06:04:27;;;;;;;4.77;2.00;;;;;;;;;;5009229;28;20202;-42
2022/07/12 06:06:53;;;;;;;4.30;2.20;;;;;;;;;;5010597;28;20250;-42
2022/07/12 06:09:19;;;;;;;7.80;2.47;;;;;;;;;;5009472;28;20723;-43
2022/07/12 06:11:46;;;;;;;5.30;2.17;;;;;;;;;;5006122;28;20184;-42
2022/07/12 06:14:12;;;;;;;5.07;1.87;;;;;;;;;;5006964;28;20895;-42
2022/07/12 06:16:38;;;;;;;5.10;1.87;;;;;;;;;;5010991;28;20415;-42
2022/07/12 06:19:04;;;;;;;5.30;2.27;;;;;;;;;;5005076;28;20440;-42
2022/07/12 06:21:30;;;;;;;4.73;2.00;;;;;;;;;;5004730;28;20196;-42
2022/07/12 06:23:56;;;;;;;8.70;2.53;;;;;;;;;;5011577;28;20436;-42
2022/07/12 06:26:22;;;;;;;4.93;2.23;;;;;;;;;;5003854;28;20199;-43
2022/07/12 06:28:48;;;;;;;4.40;2.07;;;;;;;;;;5007512;28;20804;-44
2022/07/12 06:31:14;;;;;;;5.00;2.37;;;;;;;;;;5010284;28;20261;-44
2022/07/12 06:33:41;;;;;;;3.90;2.00;;;;;;;;;;5003956;28;20876;-44
2022/07/12 06:36:07;;;;;;;3.73;2.17;;;;;;;;;;5003396;28;20892;-44
2022/07/12 06:38:33;;;;;;;4.90;2.00;;;;;;;;;;5005288;28;20239;-44
2022/07/12 06:40:59;;;;;;;6.83;2.10;;;;;;;;;;5006881;28;20346;-43
2022/07/12 06:43:26;;;;;;;4.60;1.80;;;;;;;;;;5006185;28;20182;-44
2022/07/12 06:45:52;;;;;;;4.17;2.23;;;;;;;;;;5006315;28;20415;-43
2022/07/12 06:48:18;;;;;;;6.33;2.13;;;;;;;;;;5008727;28;20176;-44
2022/07/12 06:50:45;;;;;;;4.43;2.30;;;;;;;;;;5010067;28;20207;-44
2022/07/12 06:53:14;;;;;;;3.43;1.93;;;;;;;;;;5005645;28;20176;-42
2022/07/12 06:55:40;;;;;;;5.10;1.93;;;;;;;;;;5010316;28;20646;-42
2022/07/12 06:58:06;;;;;;;3.83;1.80;;;;;;;;;;5010128;28;20180;-42
2022/07/12 07:00:32;;;;;;;4.23;1.90;;;;;;;;;;4996955;28;20201;-42
2022/07/12 07:02:58;;;;;;;4.27;1.67;;;;;;;;;;5006938;28;20188;-42
2022/07/12 07:05:24;;;;;;;7.87;1.90;;;;;;;;;;5010008;28;20485;-43
2022/07/12 07:07:50;;;;;;;2.87;1.70;;;;;;;;;;5005072;28;20207;-43
2022/07/12 07:10:16;;;;;;;6.60;1.80;;;;;;;;;;5003126;28;20949;-43
2022/07/12 07:12:42;;;;;;;5.57;1.83;;;;;;;;;;4995569;28;20290;-41
2022/07/12 07:15:08;;;;;;;5.27;2.07;;;;;;;;;;4996695;28;20184;-43
2022/07/12 07:17:34;;;;;;;4.90;1.97;;;;;;;;;;4992867;28;21194;-44
2022/07/12 07:20:01;;;;;;;5.20;1.70;;;;;;;;;;5001828;28;20488;-42
2022/07/12 07:22:27;;;;;;;4.90;1.90;;;;;;;;;;5000678;28;20886;-42
2022/07/12 07:24:53;;;;;;;4.10;1.83;;;;;;;;;;5001750;28;20745;-43
2022/07/12 07:27:19;;;;;;;5.50;1.80;;;;;;;;;;4999990;28;21487;-43
2022/07/12 07:32:31;;;;;;;3.03;1.70;;;;;;;;;;4991107;28;20312;-44
2022/07/12 07:34:57;;;;;;;3.27;1.63;;;;;;;;;;5003082;28;20709;-42
2022/07/12 07:37:23;;;;;;;7.03;1.70;;;;;;;;;;5000646;28;21173;-43
2022/07/12 07:39:49;;;;;;;10.23;2.60;;;;;;;;;;5000705;28;20516;-42
2022/07/12 07:42:15;;;;;;;7.57;1.90;;;;;;;;;;5000340;28;20176;-43
2022/07/12 07:44:41;;;;;;;3.27;1.63;;;;;;;;;;5004769;28;20629;-42
2022/07/12 07:47:07;;;;;;;3.50;1.60;;;;;;;;;;5001939;28;20615;-43
2022/07/12 07:49:33;;;;;;;4.53;1.80;;;;;;;;;;5002689;28;20188;-43
2022/07/12 07:52:00;;;;;;;3.87;1.97;;;;;;;;;;5004308;28;20366;-43
2022/07/12 07:54:26;;;;;;;6.73;1.90;;;;;;;;;;5005527;28;20215;-43
2022/07/12 07:56:52;;;;;;;3.67;1.70;;;;;;;;;;5005759;28;20262;-43
2022/07/12 07:59:18;;;;;;;7.20;1.67;;;;;;;;;;5006882;28;20636;-43
2022/07/12 08:01:52;;;;;;;5.43;1.97;;;;;;;;;;4999563;28;20287;-43
2022/07/12 08:04:18;;;;;;;5.33;1.70;;;;;;;;;;5003573;28;20183;-43
2022/07/12 08:06:45;;;;;;;6.60;1.87;;;;;;;;;;5004791;28;20278;-42
2022/07/12 08:09:11;;;;;;;3.13;1.60;;;;;;;;;;5001865;28;20460;-42
2022/07/12 08:11:38;;;;;;;4.87;1.60;;;;;;;;;;4996229;28;20822;-42
2022/07/12 08:14:04;;;;;;;5.07;1.70;;;;;;;;;;5000773;28;20456;-45
2022/07/12 08:16:31;;;;;;;5.73;2.30;;;;;;;;;;4996871;28;20627;-43
2022/07/12 08:18:57;;;;;;;14.23;2.50;;;;;;;;;;5004856;28;20200;-43
2022/07/12 08:21:23;;;;;;;6.70;1.67;;;;;;;;;;5006452;28;20213;-43
2022/07/12 08:23:50;;;;;;;4.90;1.73;;;;;;;;;;5007014;28;20475;-43
2022/07/12 08:26:16;;;;;;;3.67;1.70;;;;;;;;;;5004696;28;20758;-41
2022/07/12 08:28:42;;;;;;;3.90;1.40;;;;;;;;;;5008109;28;20421;-44
2022/07/12 08:31:08;;;;;;;4.80;1.70;;;;;;;;;;5005434;28;20183;-42
2022/07/12 08:33:34;;;;;;;4.90;2.07;;;;;;;;;;4999982;28;20188;-42
2022/07/12 08:36:00;;;;;;;4.83;1.93;;;;;;;;;;5002312;28;20639;-45
2022/07/12 08:38:27;;;;;;;7.57;1.90;;;;;;;;;;5004625;28;20468;-44
2022/07/12 08:40:53;;;;;;;3.93;1.60;;;;;;;;;;5003188;28;20325;-44
2022/07/12 08:43:20;;;;;;;5.20;1.87;;;;;;;;;;5001852;28;20180;-44
2022/07/12 08:45:46;;;;;;;4.40;1.67;;;;;;;;;;5002865;28;20516;-41
2022/07/12 08:48:12;;;;;;;4.17;1.80;;;;;;;;;;5007459;28;21063;-43
2022/07/12 08:50:38;;;;;;;7.27;1.77;;;;;;;;;;5006940;28;20585;-43
2022/07/12 08:53:10;;;;;;;4.83;1.50;;;;;;;;;;5006804;28;20663;-42
2022/07/12 08:55:36;;;;;;;4.63;1.93;;;;;;;;;;5006264;28;20177;-42
2022/07/12 08:58:03;;;;;;;7.37;1.83;;;;;;;;;;5002837;28;20687;-42
2022/07/12 09:00:30;;;;;;;6.20;1.63;;;;;;;;;;5010073;28;20717;-43
2022/07/12 09:02:57;;;;;;;5.20;1.40;;;;;;;;;;5006070;28;20586;-41
2022/07/12 09:05:24;;;;;;;9.60;2.00;;;;;;;;;;5002680;28;20188;-41
2022/07/12 09:07:50;;;;;;;5.13;2.10;;;;;;;;;;5007599;28;20176;-42
2022/07/12 09:10:17;;;;;;;4.57;1.73;;;;;;;;;;4998779;28;20275;-42
2022/07/12 09:12:43;;;;;;;5.57;1.70;;;;;;;;;;5002275;28;20180;-42
2022/07/12 09:15:13;;;;;;;3.73;1.53;;;;;;;;;;5009538;28;20669;-42
2022/07/12 09:17:39;;;;;;;5.67;2.07;;;;;;;;;;5004788;28;20866;-42
2022/07/12 09:20:06;;;;;;;7.57;1.80;;;;;;;;;;5006192;28;20205;-42
2022/07/12 09:22:32;;;;;;;5.13;1.73;;;;;;;;;;5007318;28;20187;-42
2022/07/12 09:25:03;;;;;;;6.07;1.97;;;;;;;;;;5002318;28;20183;-42
2022/07/12 09:27:29;;;;;;;4.30;1.50;;;;;;;;;;5005294;28;20176;-43
2022/07/12 09:29:55;;;;;;;5.20;1.67;;;;;;;;;;5008259;28;20386;-42
2022/07/12 09:38:10;;;;;;;5.00;1.60;;;;;;;;;;4992170;28;20415;-42
2022/07/12 09:40:37;;;;;;;3.73;1.70;;;;;;;;;;5000862;28;20196;-43
2022/07/12 09:43:05;;;;;;;6.40;1.83;;;;;;;;;;4997847;28;20861;-42
2022/07/12 09:45:31;;;;;;;4.30;1.40;;;;;;;;;;5002877;28;20176;-42
2022/07/12 09:47:58;;;;;;;4.07;1.30;;;;;;;;;;4998368;28;20601;-41
2022/07/12 09:50:24;;;;;;;4.53;1.57;;;;;;;;;;4998359;28;20180;-42
2022/07/12 09:52:51;;;;;;;6.73;1.60;;;;;;;;;;5003002;28;21027;-42
2022/07/12 09:55:18;;;;;;;5.07;1.70;;;;;;;;;;5004639;28;20728;-43
2022/07/12 09:57:45;;;;;;;5.93;1.80;;;;;;;;;;4996346;28;20528;-43
2022/07/12 10:00:11;;;;;;;4.47;1.50;;;;;;;;;;5003587;28;20200;-42
2022/07/12 10:02:38;;;;;;;3.13;1.53;;;;;;;;;;4999786;28;20636;-43
2022/07/12 10:05:05;;;;;;;4.17;1.67;;;;;;;;;;5000147;28;20176;-43
2022/07/12 10:07:32;;;;;;;4.83;1.60;;;;;;;;;;5008965;28;20192;-41
2022/07/12 10:09:58;;;;;;;3.10;1.47;;;;;;;;;;5006527;28;20175;-43
2022/07/12 10:12:24;;;;;;;4.23;1.57;;;;;;;;;;5004215;28;21847;-43
2022/07/12 10:15:02;;;;;;;2.80;1.50;;;;;;;;;;5007920;28;20219;-43
2022/07/12 10:17:30;;;;;;;3.07;1.40;;;;;;;;;;5008037;28;20183;-43
2022/07/12 10:20:16;;;;;;;3.43;1.47;;;;;;;;;;5004341;28;20785;-43
2022/07/12 10:22:43;;;;;;;4.27;1.63;;;;;;;;;;5007309;28;20201;-43
2022/07/12 10:25:27;;;;;;;3.83;1.77;;;;;;;;;;5005188;28;20161;-44
2022/07/12 10:27:53;;;;;;;5.83;1.90;;;;;;;;;;4996374;28;20176;-44
2022/07/12 10:30:21;;;;;;;4.23;1.63;;;;;;;;;;4999385;28;20255;-43
2022/07/12 10:32:48;;;;;;;5.83;1.90;;;;;;;;;;5009772;28;20928;-43
2022/07/12 10:35:22;;;;;;;7.23;1.80;;;;;;;;;;5007056;28;20190;-44
2022/07/12 10:38:06;;;;;;;5.77;1.60;;;;;;;;;;5008323;28;20173;-43
2022/07/12 10:40:35;;;;;;;3.80;1.40;;;;;;;;;;5008028;28;20925;-43
2022/07/12 10:43:05;;;;;;;5.83;1.63;;;;;;;;;;5001016;28;20726;-42
2022/07/12 10:45:32;;;;;;;4.60;1.77;;;;;;;;;;5009021;28;20223;-42
2022/07/12 10:47:59;;;;;;;2.93;1.70;;;;;;;;;;5005443;28;20180;-42
2022/07/12 10:50:48;;;;;;;4.87;1.40;;;;;;;;;;5005963;28;20172;-43
2022/07/12 10:53:23;;;;;;;7.20;1.90;;;;;;;;;;5008090;28;21618;-43
2022/07/12 10:56:04;;;;;;;18.60;2.90;;;;;;;;;;5005585;28;21067;-43
2022/07/12 10:58:31;;;;;;;8.03;1.97;;;;;;;;;;5009143;28;20171;-43
2022/07/12 11:00:58;;;;;;;4.63;1.50;;;;;;;;;;5007334;28;20610;-43
2022/07/12 11:03:24;;;;;;;3.67;1.50;;;;;;;;;;5007210;28;20915;-43
2022/07/12 11:05:50;;;;;;;5.83;1.70;;;;;;;;;;4999309;28;20227;-43
2022/07/12 11:08:16;;;;;;;2.67;1.40;;;;;;;;;;5003135;28;20172;-43
2022/07/12 11:10:55;;;;;;;4.67;1.43;;;;;;;;;;5002249;28;20172;-43
2022/07/12 11:13:23;;;;;;;4.57;1.50;;;;;;;;;;5004077;28;20184;-43
2022/07/12 11:16:00;;;;;;;3.57;1.50;;;;;;;;;;5009318;28;20180;-43
2022/07/12 11:18:30;;;;;;;3.73;1.60;;;;;;;;;;5002761;28;20261;-43
2022/07/12 11:20:59;;;;;;;7.43;1.70;;;;;;;;;;5004425;28;20230;-43
2022/07/12 11:23:28;;;;;;;6.47;1.60;;;;;;;;;;5004111;28;20219;-43
2022/07/12 11:25:58;;;;;;;4.43;1.60;;;;;;;;;;4997164;28;20176;-42
2022/07/12 11:28:25;;;;;;;3.67;1.70;;;;;;;;;;4992974;28;20957;-42
2022/07/12 11:30:52;;;;;;;9.20;1.77;;;;;;;;;;5002981;28;20550;-43
2022/07/12 11:33:32;;;;;;;3.53;1.60;;;;;;;;;;5018938;28;20185;-43
2022/07/12 11:35:58;;;;;;;4.17;1.60;;;;;;;;;;5004352;28;20183;-42
2022/07/12 11:38:25;;;;;;;3.17;1.43;;;;;;;;;;5005135;28;20564;-43
2022/07/12 11:41:10;;;;;;;6.90;1.60;;;;;;;;;;5007728;28;20209;-43
2022/07/12 11:43:37;;;;;;;3.80;1.67;;;;;;;;;;5007833;28;20172;-44
2022/07/12 11:46:04;;;;;;;4.63;1.60;;;;;;;;;;4997726;28;20627;-43
2022/07/12 11:48:33;;;;;;;8.03;1.97;;;;;;;;;;5004706;28;20187;-43
2022/07/12 11:51:03;;;;;;;3.47;1.73;;;;;;;;;;5003144;28;20180;-43
2022/07/12 11:53:30;;;;;;;3.67;1.60;;;;;;;;;;4997835;28;20601;-43
2022/07/12 11:55:57;;;;;;;2.77;1.50;;;;;;;;;;5004486;28;21724;-43
2022/07/12 11:58:24;;;;;;;5.37;1.70;;;;;;;;;;4999096;28;20638;-43
2022/07/12 12:00:51;;;;;;;7.90;1.43;;;;;;;;;;5004289;28;20231;-43
2022/07/12 12:03:17;;;;;;;3.83;1.73;;;;;;;;;;5007189;28;20834;-43
2022/07/12 12:05:44;;;;;;;8.27;1.50;;;;;;;;;;5008399;28;20174;-43
2022/07/12 12:08:12;;;;;;;5.77;1.63;;;;;;;;;;5000904;28;20185;-43
2022/07/12 12:10:38;;;;;;;4.93;1.63;;;;;;;;;;5005557;28;20184;-43
2022/07/12 12:13:04;;;;;;;5.50;1.40;;;;;;;;;;5005792;28;20287;-43
2022/07/12 12:15:31;;;;;;;4.47;1.43;;;;;;;;;;5001445;28;20499;-43
2022/07/12 12:17:59;;;;;;;2.23;1.40;;;;;;;;;;5002170;28;20591;-43
2022/07/12 12:20:35;;;;;;;3.73;1.47;;;;;;;;;;5005005;28;20604;-43
2022/07/12 12:23:02;;;;;;;5.23;1.53;;;;;;;;;;5005779;28;20592;-43
2022/07/12 12:25:29;;;;;;;4.80;1.83;;;;;;;;;;5000803;28;20191;-43
2022/07/12 12:27:56;;;;;;;3.93;1.70;;;;;;;;;;5001266;28;20791;-43
2022/07/12 12:30:23;;;;;;;3.23;1.50;;;;;;;;;;5004360;28;20206;-41
2022/07/12 12:32:52;;;;;;;4.43;1.70;;;;;;;;;;4998872;28;20430;-43
2022/07/12 12:35:22;;;;;;;3.70;1.33;;;;;;;;;;4998536;28;20176;-43
2022/07/12 12:37:58;;;;;;;4.67;1.60;;;;;;;;;;5002341;28;20188;-43
2022/07/12 12:40:25;;;;;;;4.37;1.53;;;;;;;;;;5002280;28;20434;-43
2022/07/12 12:42:52;;;;;;;3.90;1.30;;;;;;;;;;5001422;28;20439;-43
2022/07/12 12:45:22;;;;;;;6.53;1.60;;;;;;;;;;5001537;28;20236;-43
2022/07/12 12:47:59;;;;;;;3.67;1.50;;;;;;;;;;5003300;28;20184;-43
2022/07/12 12:50:41;;;;;;;5.00;1.50;;;;;;;;;;5003529;28;20192;-43
2022/07/12 12:53:08;;;;;;;3.00;1.60;;;;;;;;;;5003220;28;20219;-44
2022/07/12 12:55:34;;;;;;;4.93;1.53;;;;;;;;;;5005806;28;20178;-44
2022/07/12 12:58:01;;;;;;;4.00;1.60;;;;;;;;;;5003390;28;20176;-44
2022/07/12 13:00:27;;;;;;;5.60;1.60;;;;;;;;;;5004349;28;20302;-44
2022/07/12 13:02:54;;;;;;;3.40;1.43;;;;;;;;;;5005719;28;20217;-44
2022/07/12 13:05:20;;;;;;;4.47;1.40;;;;;;;;;;5009159;28;20255;-44
2022/07/12 13:07:46;;;;;;;3.77;1.40;;;;;;;;;;5002767;28;20223;-44
2022/07/12 13:10:12;;;;;;;4.00;1.57;;;;;;;;;;5003715;28;20191;-44
2022/07/12 13:12:38;;;;;;;4.83;1.20;;;;;;;;;;5005003;28;20697;-43
2022/07/12 13:15:07;;;;;;;6.63;1.80;;;;;;;;;;5003341;28;20284;-43
2022/07/12 13:17:33;;;;;;;5.43;1.40;;;;;;;;;;5005819;28;20207;-44
2022/07/12 13:19:59;;;;;;;2.37;1.30;;;;;;;;;;5006209;28;20200;-43
2022/07/12 13:22:25;;;;;;;7.00;1.60;;;;;;;;;;5004181;28;20267;-44
2022/07/12 13:24:51;;;;;;;4.40;1.47;;;;;;;;;;5001522;28;20632;-44
2022/07/12 13:27:17;;;;;;;6.57;1.67;;;;;;;;;;5007522;28;21033;-44
2022/07/12 13:29:43;;;;;;;8.20;1.53;;;;;;;;;;5007117;28;20218;-43
2022/07/12 13:32:10;;;;;;;3.90;1.43;;;;;;;;;;5008027;28;20190;-44
2022/07/12 13:34:36;;;;;;;5.67;1.70;;;;;;;;;;5004757;28;20470;-44
2022/07/12 13:37:02;;;;;;;4.00;1.47;;;;;;;;;;5002193;28;20614;-44
2022/07/12 13:42:13;;;;;;;3.33;1.30;;;;;;;;;;5011260;28;20695;-44
2022/07/12 13:44:39;;;;;;;5.50;1.80;;;;;;;;;;5008599;28;20182;-43
2022/07/12 13:47:05;;;;;;;7.00;1.60;;;;;;;;;;5007448;28;20751;-44
2022/07/12 13:49:31;;;;;;;4.10;1.50;;;;;;;;;;5011088;28;20186;-43
2022/07/12 13:51:58;;;;;;;14.00;2.03;;;;;;;;;;5009724;28;20817;-44
2022/07/12 13:54:24;;;;;;;5.23;1.50;;;;;;;;;;5004994;28;20614;-44
2022/07/12 13:56:50;;;;;;;4.03;1.43;;;;;;;;;;5002469;28;20384;-44
2022/07/12 13:59:16;;;;;;;6.07;1.70;;;;;;;;;;5006899;28;21065;-44
2022/07/12 14:01:43;;;;;;;5.80;1.30;;;;;;;;;;5004927;28;20301;-44
2022/07/12 14:04:09;;;;;;;5.30;1.60;;;;;;;;;;5003270;28;20187;-44
2022/07/12 14:06:35;;;;;;;5.73;2.13;;;;;;;;;;5008320;28;20759;-44
2022/07/12 14:09:01;;;;;;;6.13;2.00;;;;;;;;;;5002717;28;20627;-44
2022/07/12 14:11:27;;;;;;;2.77;1.67;;;;;;;;;;5001889;28;20618;-44
2022/07/12 14:13:54;;;;;;;6.73;1.70;;;;;;;;;;5000782;28;20528;-44
2022/07/12 14:16:21;;;;;;;5.00;1.87;;;;;;;;;;5007174;28;20219;-44
2022/07/12 14:18:47;;;;;;;3.03;1.40;;;;;;;;;;5003645;28;20194;-44
2022/07/12 14:21:13;;;;;;;7.07;1.97;;;;;;;;;;5002316;28;20233;-44
2022/07/12 14:23:40;;;;;;;2.37;1.30;;;;;;;;;;5007299;28;20270;-44
2022/07/12 14:26:07;;;;;;;5.80;1.80;;;;;;;;;;5003606;28;21027;-44
2022/07/12 14:28:33;;;;;;;4.10;1.40;;;;;;;;;;5003928;28;21067;-42
2022/07/12 14:30:59;;;;;;;4.47;1.87;;;;;;;;;;5006378;28;21150;-44
2022/07/12 14:33:26;;;;;;;4.43;1.50;;;;;;;;;;5004955;28;20185;-44
2022/07/12 14:35:52;;;;;;;4.00;1.50;;;;;;;;;;5003144;28;20191;-44
2022/07/12 14:38:18;;;;;;;3.87;1.40;;;;;;;;;;5003484;28;20188;-44
2022/07/12 14:40:44;;;;;;;4.57;1.50;;;;;;;;;;5006193;28;20295;-42
2022/07/12 14:43:11;;;;;;;3.73;1.70;;;;;;;;;;5004716;28;20573;-42
2022/07/12 14:45:37;;;;;;;2.70;1.60;;;;;;;;;;5004621;28;20533;-42
2022/07/12 14:48:04;;;;;;;4.80;1.63;;;;;;;;;;5007749;28;20596;-43
2022/07/12 14:50:30;;;;;;;4.93;1.50;;;;;;;;;;5007576;28;20184;-43
2022/07/12 14:52:56;;;;;;;4.70;1.57;;;;;;;;;;5009135;28;20496;-42
2022/07/12 14:55:22;;;;;;;4.67;1.60;;;;;;;;;;5007897;28;20760;-43
2022/07/12 14:57:48;;;;;;;7.10;1.67;;;;;;;;;;5007200;28;20553;-44